sensor_id;sensor_type;location;lat;lon;timestamp;pressure;altitude;pressure_sealevel;temperature;humidity
55289;BME280;41154;45.394;5.734;2022-11-18T00:01:45;95739.72;;;10.10;100.00
55289;BME280;41154;45.394;5.734;2022-11-18T00:04:11;95751.28;;;10.05;100.00
55289;BME280;41154;45.394;5.734;2022-11-18T00:06:37;95752.97;;;9.96;100.00
55289;BME280;41154;45.394;5.734;2022-11-18T00:09:02;95767.75;;;9.88;100.00
55289;BME280;41154;45.394;5.734;2022-11-18T00:11:28;95764.50;;;9.86;100.00
55289;BME280;41154;45.394;5.734;2022-11-18T00:14:23;95765.59;;;9.85;100.00
55289;BME280;41154;45.394;5.734;2022-11-18T00:17:08;95737.22;;;9.84;100.00
55289;BME280;41154;45.394;5.734;2022-11-18T00:19:39;95716.84;;;9.83;100.00
55289;BME280;41154;45.394;5.734;2022-11-18T00:22:11;95697.63;;;9.76;100.00
55289;BME280;41154;45.394;5.734;2022-11-18T00:24:37;95687.16;;;9.79;100.00
55289;BME280;41154;45.394;5.734;2022-11-18T00:27:02;95703.03;;;9.65;100.00
55289;BME280;41154;45.394;5.734;2022-11-18T00:29:28;95706.56;;;9.56;100.00
55289;BME280;41154;45.394;5.734;2022-11-18T00:31:56;95709.72;;;9.68;100.00
55289;BME280;41154;45.394;5.734;2022-11-18T00:34:23;95713.75;;;9.65;100.00
55289;BME280;41154;45.394;5.734;2022-11-18T00:36:49;95726.97;;;9.41;100.00
55289;BME280;41154;45.394;5.734;2022-11-18T00:39:16;95740.09;;;9.43;100.00
55289;BME280;41154;45.394;5.734;2022-11-18T00:41:43;95761.19;;;9.49;100.00
55289;BME280;41154;45.394;5.734;2022-11-18T00:44:27;95758.28;;;9.46;100.00
55289;BME280;41154;45.394;5.734;2022-11-18T00:46:53;95746.97;;;9.59;100.00
55289;BME280;41154;45.394;5.734;2022-11-18T00:49:19;95746.75;;;9.45;100.00
55289;BME280;41154;45.394;5.734;2022-11-18T00:51:45;95763.13;;;9.28;100.00
55289;BME280;41154;45.394;5.734;2022-11-18T00:54:11;95759.94;;;9.26;100.00
55289;BME280;41154;45.394;5.734;2022-11-18T00:56:37;95764.22;;;9.27;100.00
55289;BME280;41154;45.394;5.734;2022-11-18T00:59:02;95771.75;;;9.05;100.00
55289;BME280;41154;45.394;5.734;2022-11-18T01:01:28;95769.06;;;9.15;100.00
55289;BME280;41154;45.394;5.734;2022-11-18T01:03:54;95770.91;;;9.14;100.00
55289;BME280;41154;45.394;5.734;2022-11-18T01:06:20;95778.22;;;8.88;100.00
55289;BME280;41154;45.394;5.734;2022-11-18T01:08:46;95780.63;;;8.74;100.00
55289;BME280;41154;45.394;5.734;2022-11-18T01:11:11;95775.22;;;9.10;100.00
55289;BME280;41154;45.394;5.734;2022-11-18T01:13:56;95782.97;;;9.07;100.00
55289;BME280;41154;45.394;5.734;2022-11-18T01:16:24;95793.72;;;8.81;100.00
55289;BME280;41154;45.394;5.734;2022-11-18T01:18:50;95788.09;;;8.77;100.00
55289;BME280;41154;45.394;5.734;2022-11-18T01:21:16;95796.38;;;8.96;100.00
55289;BME280;41154;45.394;5.734;2022-11-18T01:23:42;95800.66;;;8.82;100.00
55289;BME280;41154;45.394;5.734;2022-11-18T01:26:10;95804.41;;;8.60;100.00
55289;BME280;41154;45.394;5.734;2022-11-18T01:28:36;95815.09;;;8.60;100.00
55289;BME280;41154;45.394;5.734;2022-11-18T01:31:08;95809.75;;;8.60;100.00
55289;BME280;41154;45.394;5.734;2022-11-18T01:33:34;95812.94;;;8.52;100.00
55289;BME280;41154;45.394;5.734;2022-11-18T01:36:00;95813.47;;;8.64;100.00
55289;BME280;41154;45.394;5.734;2022-11-18T01:38:26;95821.25;;;8.76;100.00
55289;BME280;41154;45.394;5.734;2022-11-18T01:40:53;95822.59;;;8.69;100.00
55289;BME280;41154;45.394;5.734;2022-11-18T01:43:20;95830.06;;;8.67;100.00
55289;BME280;41154;45.394;5.734;2022-11-18T01:45:49;95841.00;;;8.60;100.00
55289;BME280;41154;45.394;5.734;2022-11-18T01:48:30;95848.00;;;8.87;100.00
55289;BME280;41154;45.394;5.734;2022-11-18T01:51:01;95843.97;;;8.74;100.00
55289;BME280;41154;45.394;5.734;2022-11-18T01:53:34;95845.06;;;8.93;100.00
55289;BME280;41154;45.394;5.734;2022-11-18T01:56:10;95850.09;;;8.69;100.00
55289;BME280;41154;45.394;5.734;2022-11-18T01:58:53;95851.44;;;8.56;100.00
55289;BME280;41154;45.394;5.734;2022-11-18T02:01:20;95852.53;;;8.96;100.00
55289;BME280;41154;45.394;5.734;2022-11-18T02:03:47;95857.88;;;8.71;100.00
55289;BME280;41154;45.394;5.734;2022-11-18T02:06:14;95858.94;;;8.80;100.00
55289;BME280;41154;45.394;5.734;2022-11-18T02:08:40;95853.31;;;8.61;100.00
55289;BME280;41154;45.394;5.734;2022-11-18T02:11:12;95851.97;;;8.74;100.00
55289;BME280;41154;45.394;5.734;2022-11-18T02:14:00;95859.50;;;8.87;100.00
55289;BME280;41154;45.394;5.734;2022-11-18T02:24:41;95861.63;;;8.85;100.00
55289;BME280;41154;45.394;5.734;2022-11-18T02:30:06;95854.94;;;8.77;100.00
55289;BME280;41154;45.394;5.734;2022-11-18T02:32:40;95855.72;;;8.62;100.00
55289;BME280;41154;45.394;5.734;2022-11-18T02:35:30;95858.91;;;8.64;100.00
55289;BME280;41154;45.394;5.734;2022-11-18T02:38:06;95858.66;;;8.61;100.00
55289;BME280;41154;45.394;5.734;2022-11-18T02:40:38;95859.22;;;8.73;100.00
55289;BME280;41154;45.394;5.734;2022-11-18T02:43:07;95854.38;;;8.50;100.00
55289;BME280;41154;45.394;5.734;2022-11-18T02:45:36;95859.91;;;8.43;100.00
55289;BME280;41154;45.394;5.734;2022-11-18T02:48:08;95854.63;;;8.58;100.00
55289;BME280;41154;45.394;5.734;2022-11-18T02:50:37;95862.38;;;8.55;100.00
55289;BME280;41154;45.394;5.734;2022-11-18T02:53:06;95858.94;;;8.54;100.00
55289;BME280;41154;45.394;5.734;2022-11-18T02:55:34;95856.00;;;8.61;100.00
55289;BME280;41154;45.394;5.734;2022-11-18T02:58:03;95859.75;;;8.65;100.00
55289;BME280;41154;45.394;5.734;2022-11-18T03:00:31;95856.78;;;8.61;100.00
55289;BME280;41154;45.394;5.734;2022-11-18T03:02:57;95851.19;;;8.68;100.00
55289;BME280;41154;45.394;5.734;2022-11-18T03:05:38;95851.44;;;8.77;100.00
55289;BME280;41154;45.394;5.734;2022-11-18T03:08:11;95854.09;;;8.61;100.00
55289;BME280;41154;45.394;5.734;2022-11-18T03:11:15;95854.91;;;8.52;100.00
55289;BME280;41154;45.394;5.734;2022-11-18T03:16:32;95858.94;;;8.80;100.00
55289;BME280;41154;45.394;5.734;2022-11-18T03:19:12;95855.75;;;8.78;100.00
55289;BME280;41154;45.394;5.734;2022-11-18T03:21:46;95858.69;;;8.87;100.00
55289;BME280;41154;45.394;5.734;2022-11-18T03:24:21;95861.59;;;8.64;100.00
55289;BME280;41154;45.394;5.734;2022-11-18T03:26:51;95862.94;;;8.67;100.00
55289;BME280;41154;45.394;5.734;2022-11-18T03:29:29;95873.34;;;8.58;100.00
55289;BME280;41154;45.394;5.734;2022-11-18T03:32:04;95858.38;;;8.47;100.00
55289;BME280;41154;45.394;5.734;2022-11-18T03:34:40;95865.00;;;8.39;100.00
55289;BME280;41154;45.394;5.734;2022-11-18T03:37:10;95877.81;;;8.32;100.00
55289;BME280;41154;45.394;5.734;2022-11-18T03:39:41;95881.91;;;8.66;100.00
55289;BME280;41154;45.394;5.734;2022-11-18T03:42:19;95890.66;;;8.35;100.00
55289;BME280;41154;45.394;5.734;2022-11-18T03:44:53;95900.09;;;8.63;100.00
55289;BME280;41154;45.394;5.734;2022-11-18T03:47:25;95915.88;;;8.70;100.00
55289;BME280;41154;45.394;5.734;2022-11-18T03:49:59;95927.06;;;8.52;100.00
55289;BME280;41154;45.394;5.734;2022-11-18T03:52:30;95932.31;;;8.26;100.00
55289;BME280;41154;45.394;5.734;2022-11-18T03:55:01;95935.44;;;8.13;100.00
55289;BME280;41154;45.394;5.734;2022-11-18T04:00:21;95931.41;;;8.10;100.00
55289;BME280;41154;45.394;5.734;2022-11-18T04:02:49;95941.97;;;7.84;100.00
55289;BME280;41154;45.394;5.734;2022-11-18T04:05:16;95946.28;;;7.90;100.00
55289;BME280;41154;45.394;5.734;2022-11-18T04:07:57;95950.47;;;7.76;100.00
55289;BME280;41154;45.394;5.734;2022-11-18T04:10:38;95948.34;;;7.78;100.00
55289;BME280;41154;45.394;5.734;2022-11-18T04:15:39;95951.72;;;7.63;100.00
55289;BME280;41154;45.394;5.734;2022-11-18T04:18:06;95951.44;;;7.60;100.00
55289;BME280;41154;45.394;5.734;2022-11-18T04:20:32;95960.53;;;7.64;100.00
55289;BME280;41154;45.394;5.734;2022-11-18T04:22:58;95964.25;;;7.63;100.00
55289;BME280;41154;45.394;5.734;2022-11-18T04:25:24;95956.75;;;7.54;100.00
55289;BME280;41154;45.394;5.734;2022-11-18T04:27:50;95964.69;;;7.49;100.00
55289;BME280;41154;45.394;5.734;2022-11-18T04:30:16;95960.38;;;7.43;100.00
55289;BME280;41154;45.394;5.734;2022-11-18T04:32:42;95965.69;;;7.38;100.00
55289;BME280;41154;45.394;5.734;2022-11-18T04:35:08;95953.97;;;7.39;100.00
55289;BME280;41154;45.394;5.734;2022-11-18T04:37:34;95962.47;;;7.36;100.00
55289;BME280;41154;45.394;5.734;2022-11-18T04:40:00;95966.13;;;7.25;100.00
55289;BME280;41154;45.394;5.734;2022-11-18T04:42:25;95967.19;;;7.29;100.00
55289;BME280;41154;45.394;5.734;2022-11-18T04:44:51;95958.63;;;7.22;100.00
55289;BME280;41154;45.394;5.734;2022-11-18T04:47:17;95964.47;;;7.18;100.00
55289;BME280;41154;45.394;5.734;2022-11-18T04:49:43;95971.75;;;7.28;100.00
55289;BME280;41154;45.394;5.734;2022-11-18T04:52:08;95967.31;;;7.39;100.00
55289;BME280;41154;45.394;5.734;2022-11-18T04:54:34;95977.38;;;7.32;100.00
55289;BME280;41154;45.394;5.734;2022-11-18T04:57:00;95979.56;;;7.40;100.00
55289;BME280;41154;45.394;5.734;2022-11-18T04:59:27;95977.94;;;7.34;100.00
55289;BME280;41154;45.394;5.734;2022-11-18T05:01:54;95983.81;;;7.36;100.00
55289;BME280;41154;45.394;5.734;2022-11-18T05:04:22;95979.66;;;7.50;100.00
55289;BME280;41154;45.394;5.734;2022-11-18T05:06:49;95985.34;;;7.59;100.00
55289;BME280;41154;45.394;5.734;2022-11-18T05:09:15;95988.78;;;7.60;100.00
55289;BME280;41154;45.394;5.734;2022-11-18T05:11:41;95985.06;;;7.61;100.00
55289;BME280;41154;45.394;5.734;2022-11-18T05:14:27;95978.41;;;7.63;100.00
55289;BME280;41154;45.394;5.734;2022-11-18T05:16:54;95967.56;;;7.75;100.00
55289;BME280;41154;45.394;5.734;2022-11-18T05:19:21;95975.84;;;7.41;100.00
55289;BME280;41154;45.394;5.734;2022-11-18T05:21:47;95974.44;;;7.33;100.00
55289;BME280;41154;45.394;5.734;2022-11-18T05:24:13;95977.44;;;7.37;100.00
55289;BME280;41154;45.394;5.734;2022-11-18T05:26:38;95982.16;;;7.30;100.00
55289;BME280;41154;45.394;5.734;2022-11-18T05:29:04;95994.06;;;7.17;100.00
55289;BME280;41154;45.394;5.734;2022-11-18T05:31:30;95988.72;;;7.17;100.00
55289;BME280;41154;45.394;5.734;2022-11-18T05:33:56;95998.31;;;7.18;100.00
55289;BME280;41154;45.394;5.734;2022-11-18T05:36:22;95999.19;;;7.24;100.00
55289;BME280;41154;45.394;5.734;2022-11-18T05:38:48;95997.06;;;7.26;100.00
55289;BME280;41154;45.394;5.734;2022-11-18T05:41:15;96003.78;;;7.33;100.00
55289;BME280;41154;45.394;5.734;2022-11-18T05:44:09;96004.47;;;7.18;100.00
55289;BME280;41154;45.394;5.734;2022-11-18T05:46:35;95998.72;;;7.32;100.00
55289;BME280;41154;45.394;5.734;2022-11-18T05:49:01;96008.25;;;7.55;100.00
55289;BME280;41154;45.394;5.734;2022-11-18T05:51:26;96013.84;;;7.53;100.00
55289;BME280;41154;45.394;5.734;2022-11-18T05:53:53;96020.47;;;7.51;100.00
55289;BME280;41154;45.394;5.734;2022-11-18T05:56:35;96027.94;;;7.49;100.00
55289;BME280;41154;45.394;5.734;2022-11-18T05:59:01;96049.03;;;7.50;100.00
55289;BME280;41154;45.394;5.734;2022-11-18T06:01:31;96055.34;;;7.39;100.00
55289;BME280;41154;45.394;5.734;2022-11-18T06:04:00;96044.47;;;7.78;100.00
55289;BME280;41154;45.394;5.734;2022-11-18T06:06:28;96053.09;;;7.90;100.00
55289;BME280;41154;45.394;5.734;2022-11-18T06:09:02;96051.41;;;7.79;100.00
55289;BME280;41154;45.394;5.734;2022-11-18T06:11:30;96052.50;;;7.83;100.00
55289;BME280;41154;45.394;5.734;2022-11-18T06:14:04;96050.53;;;7.68;100.00
55289;BME280;41154;45.394;5.734;2022-11-18T06:16:32;96063.53;;;7.60;100.00
55289;BME280;41154;45.394;5.734;2022-11-18T06:19:00;96063.41;;;7.49;100.00
55289;BME280;41154;45.394;5.734;2022-11-18T06:21:27;96061.81;;;7.48;100.00
55289;BME280;41154;45.394;5.734;2022-11-18T06:23:53;96066.09;;;7.49;100.00
55289;BME280;41154;45.394;5.734;2022-11-18T06:26:20;96067.16;;;7.48;100.00
55289;BME280;41154;45.394;5.734;2022-11-18T06:28:47;96066.22;;;7.65;100.00
55289;BME280;41154;45.394;5.734;2022-11-18T06:31:13;96063.81;;;7.63;100.00
55289;BME280;41154;45.394;5.734;2022-11-18T06:33:41;96080.53;;;7.53;100.00
55289;BME280;41154;45.394;5.734;2022-11-18T06:36:07;96067.75;;;7.55;100.00
55289;BME280;41154;45.394;5.734;2022-11-18T06:38:33;96086.13;;;7.52;100.00
55289;BME280;41154;45.394;5.734;2022-11-18T06:41:00;96087.69;;;7.48;100.00
55289;BME280;41154;45.394;5.734;2022-11-18T06:43:26;96082.56;;;7.41;100.00
55289;BME280;41154;45.394;5.734;2022-11-18T06:46:09;96088.44;;;7.43;100.00
55289;BME280;41154;45.394;5.734;2022-11-18T06:48:54;96095.94;;;7.46;100.00
55289;BME280;41154;45.394;5.734;2022-11-18T06:51:20;96102.66;;;7.49;100.00
55289;BME280;41154;45.394;5.734;2022-11-18T06:53:46;96093.94;;;7.31;100.00
55289;BME280;41154;45.394;5.734;2022-11-18T06:56:13;96099.78;;;7.55;100.00
55289;BME280;41154;45.394;5.734;2022-11-18T06:58:39;96105.69;;;7.58;100.00
55289;BME280;41154;45.394;5.734;2022-11-18T07:01:13;96111.28;;;7.56;100.00
55289;BME280;41154;45.394;5.734;2022-11-18T07:03:40;96120.03;;;7.51;100.00
55289;BME280;41154;45.394;5.734;2022-11-18T07:06:07;96124.09;;;7.59;100.00
55289;BME280;41154;45.394;5.734;2022-11-18T07:08:37;96132.56;;;7.78;100.00
55289;BME280;41154;45.394;5.734;2022-11-18T07:11:04;96132.25;;;7.74;100.00
55289;BME280;41154;45.394;5.734;2022-11-18T07:13:31;96140.81;;;7.77;100.00
55289;BME280;41154;45.394;5.734;2022-11-18T07:18:33;96147.63;;;7.62;100.00
55289;BME280;41154;45.394;5.734;2022-11-18T07:21:06;96145.75;;;7.63;100.00
55289;BME280;41154;45.394;5.734;2022-11-18T07:23:33;96152.47;;;7.43;100.00
55289;BME280;41154;45.394;5.734;2022-11-18T07:25:59;96149.00;;;7.43;100.00
55289;BME280;41154;45.394;5.734;2022-11-18T07:28:26;96152.34;;;7.55;100.00
55289;BME280;41154;45.394;5.734;2022-11-18T07:30:59;96148.81;;;7.49;100.00
55289;BME280;41154;45.394;5.734;2022-11-18T07:33:25;96147.25;;;7.53;100.00
55289;BME280;41154;45.394;5.734;2022-11-18T07:35:51;96153.06;;;7.45;100.00
55289;BME280;41154;45.394;5.734;2022-11-18T07:38:17;96158.38;;;7.45;100.00
55289;BME280;41154;45.394;5.734;2022-11-18T07:40:42;96160.81;;;7.47;100.00
55289;BME280;41154;45.394;5.734;2022-11-18T07:43:08;96170.97;;;7.50;100.00
55289;BME280;41154;45.394;5.734;2022-11-18T07:45:34;96164.81;;;7.49;100.00
55289;BME280;41154;45.394;5.734;2022-11-18T07:48:00;96171.91;;;7.61;100.00
55289;BME280;41154;45.394;5.734;2022-11-18T07:50:26;96169.47;;;7.59;100.00
55289;BME280;41154;45.394;5.734;2022-11-18T07:52:55;96175.50;;;7.49;100.00
55289;BME280;41154;45.394;5.734;2022-11-18T07:55:21;96183.25;;;7.51;100.00
55289;BME280;41154;45.394;5.734;2022-11-18T07:57:46;96190.22;;;7.52;100.00
55289;BME280;41154;45.394;5.734;2022-11-18T08:00:13;96187.91;;;7.61;100.00
55289;BME280;41154;45.394;5.734;2022-11-18T08:02:38;96200.00;;;7.68;100.00
55289;BME280;41154;45.394;5.734;2022-11-18T08:05:04;96198.28;;;7.84;100.00
55289;BME280;41154;45.394;5.734;2022-11-18T08:07:30;96193.22;;;8.15;100.00
55289;BME280;41154;45.394;5.734;2022-11-18T08:09:56;96205.69;;;8.37;100.00
55289;BME280;41154;45.394;5.734;2022-11-18T08:12:21;96204.66;;;8.43;100.00
55289;BME280;41154;45.394;5.734;2022-11-18T08:14:47;96200.88;;;8.34;100.00
55289;BME280;41154;45.394;5.734;2022-11-18T08:17:13;96203.16;;;8.20;100.00
55289;BME280;41154;45.394;5.734;2022-11-18T08:19:39;96209.00;;;8.17;100.00
55289;BME280;41154;45.394;5.734;2022-11-18T08:22:04;96207.25;;;8.00;100.00
55289;BME280;41154;45.394;5.734;2022-11-18T08:24:30;96211.97;;;7.93;100.00
55289;BME280;41154;45.394;5.734;2022-11-18T08:26:56;96216.44;;;7.82;100.00
55289;BME280;41154;45.394;5.734;2022-11-18T08:29:22;96223.19;;;7.90;100.00
55289;BME280;41154;45.394;5.734;2022-11-18T08:31:47;96223.16;;;8.17;100.00
55289;BME280;41154;45.394;5.734;2022-11-18T08:34:13;96222.34;;;8.44;100.00
55289;BME280;41154;45.394;5.734;2022-11-18T08:36:39;96227.84;;;8.64;100.00
55289;BME280;41154;45.394;5.734;2022-11-18T08:39:06;96229.03;;;8.79;100.00
55289;BME280;41154;45.394;5.734;2022-11-18T08:41:38;96238.22;;;8.98;100.00
55289;BME280;41154;45.394;5.734;2022-11-18T08:44:05;96234.56;;;8.72;100.00
55289;BME280;41154;45.394;5.734;2022-11-18T08:46:31;96239.09;;;8.67;100.00
55289;BME280;41154;45.394;5.734;2022-11-18T08:48:57;96242.00;;;8.33;100.00
55289;BME280;41154;45.394;5.734;2022-11-18T08:51:24;96244.50;;;8.12;100.00
55289;BME280;41154;45.394;5.734;2022-11-18T08:53:50;96244.41;;;8.07;100.00
55289;BME280;41154;45.394;5.734;2022-11-18T08:56:20;96247.41;;;7.83;100.00
55289;BME280;41154;45.394;5.734;2022-11-18T08:58:46;96251.63;;;8.34;100.00
55289;BME280;41154;45.394;5.734;2022-11-18T09:01:12;96248.06;;;8.55;100.00
55289;BME280;41154;45.394;5.734;2022-11-18T09:03:38;96251.56;;;8.56;100.00
55289;BME280;41154;45.394;5.734;2022-11-18T09:06:17;96249.25;;;8.37;100.00
55289;BME280;41154;45.394;5.734;2022-11-18T09:08:43;96261.44;;;8.55;100.00
55289;BME280;41154;45.394;5.734;2022-11-18T09:11:10;96255.81;;;8.24;100.00
55289;BME280;41154;45.394;5.734;2022-11-18T09:13:37;96255.72;;;8.41;100.00
55289;BME280;41154;45.394;5.734;2022-11-18T09:16:03;96261.69;;;8.54;100.00
55289;BME280;41154;45.394;5.734;2022-11-18T09:18:30;96271.63;;;8.58;100.00
55289;BME280;41154;45.394;5.734;2022-11-18T09:21:01;96271.84;;;8.52;100.00
55289;BME280;41154;45.394;5.734;2022-11-18T09:23:27;96271.84;;;8.52;100.00
55289;BME280;41154;45.394;5.734;2022-11-18T09:26:05;96279.06;;;8.51;100.00
55289;BME280;41154;45.394;5.734;2022-11-18T09:28:31;96275.88;;;8.54;100.00
55289;BME280;41154;45.394;5.734;2022-11-18T09:31:02;96275.19;;;8.69;100.00
55289;BME280;41154;45.394;5.734;2022-11-18T09:33:28;96282.41;;;8.69;100.00
55289;BME280;41154;45.394;5.734;2022-11-18T09:35:54;96292.81;;;8.65;100.00
55289;BME280;41154;45.394;5.734;2022-11-18T09:38:20;96289.16;;;9.14;100.00
55289;BME280;41154;45.394;5.734;2022-11-18T09:44:00;96291.78;;;9.57;100.00
55289;BME280;41154;45.394;5.734;2022-11-18T09:48:57;96298.75;;;9.58;100.00
55289;BME280;41154;45.394;5.734;2022-11-18T09:51:41;96300.66;;;9.67;100.00
55289;BME280;41154;45.394;5.734;2022-11-18T09:54:14;96299.28;;;9.54;100.00
55289;BME280;41154;45.394;5.734;2022-11-18T09:56:42;96303.41;;;9.30;100.00
55289;BME280;41154;45.394;5.734;2022-11-18T09:59:10;96308.34;;;9.48;100.00
55289;BME280;41154;45.394;5.734;2022-11-18T10:01:37;96310.31;;;9.63;100.00
55289;BME280;41154;45.394;5.734;2022-11-18T10:04:03;96316.53;;;9.79;100.00
55289;BME280;41154;45.394;5.734;2022-11-18T10:06:31;96312.59;;;9.97;100.00
55289;BME280;41154;45.394;5.734;2022-11-18T10:09:18;96310.50;;;10.25;100.00
55289;BME280;41154;45.394;5.734;2022-11-18T10:21:00;96309.50;;;10.67;100.00
55289;BME280;41154;45.394;5.734;2022-11-18T10:22:57;96312.75;;;10.54;100.00
55289;BME280;41154;45.394;5.734;2022-11-18T10:25:26;96314.88;;;10.62;100.00
55289;BME280;41154;45.394;5.734;2022-11-18T10:27:54;96304.97;;;10.83;100.00
55289;BME280;41154;45.394;5.734;2022-11-18T10:30:21;96306.84;;;10.72;100.00
55289;BME280;41154;45.394;5.734;2022-11-18T10:33:01;96306.81;;;10.36;100.00
55289;BME280;41154;45.394;5.734;2022-11-18T10:35:32;96300.13;;;10.75;100.00
55289;BME280;41154;45.394;5.734;2022-11-18T10:40:30;96310.06;;;10.95;100.00
55289;BME280;41154;45.394;5.734;2022-11-18T10:42:57;96305.22;;;11.07;100.00
55289;BME280;41154;45.394;5.734;2022-11-18T10:50:45;96303.63;;;10.60;100.00
55289;BME280;41154;45.394;5.734;2022-11-18T10:53:32;96300.66;;;10.56;100.00
55289;BME280;41154;45.394;5.734;2022-11-18T10:56:06;96284.22;;;10.22;100.00
55289;BME280;41154;45.394;5.734;2022-11-18T10:58:35;96282.03;;;10.03;100.00
55289;BME280;41154;45.394;5.734;2022-11-18T11:01:22;96276.94;;;9.92;100.00
55289;BME280;41154;45.394;5.734;2022-11-18T11:04:00;96282.41;;;9.54;100.00
55289;BME280;41154;45.394;5.734;2022-11-18T11:06:33;96267.81;;;9.24;100.00
55289;BME280;41154;45.394;5.734;2022-11-18T11:09:00;96265.06;;;9.14;100.00
55289;BME280;41154;45.394;5.734;2022-11-18T11:11:40;96270.34;;;9.51;100.00
55289;BME280;41154;45.394;5.734;2022-11-18T11:14:14;96263.09;;;9.52;100.00
55289;BME280;41154;45.394;5.734;2022-11-18T11:19:30;96260.59;;;9.93;100.00
55289;BME280;41154;45.394;5.734;2022-11-18T11:21:57;96261.63;;;9.82;100.00
55289;BME280;41154;45.394;5.734;2022-11-18T11:24:25;96264.28;;;9.71;100.00
55289;BME280;41154;45.394;5.734;2022-11-18T11:27:06;96264.81;;;9.74;100.00
55289;BME280;41154;45.394;5.734;2022-11-18T11:32:32;96264.91;;;10.04;100.00
55289;BME280;41154;45.394;5.734;2022-11-18T11:35:19;96264.94;;;10.15;100.00
55289;BME280;41154;45.394;5.734;2022-11-18T11:37:54;96266.59;;;10.67;100.00
55289;BME280;41154;45.394;5.734;2022-11-18T11:43:11;96270.91;;;10.68;100.00
55289;BME280;41154;45.394;5.734;2022-11-18T11:57:03;96265.13;;;9.82;100.00
55289;BME280;41154;45.394;5.734;2022-11-18T11:59:59;96275.50;;;9.68;100.00
55289;BME280;41154;45.394;5.734;2022-11-18T12:05:25;96272.56;;;9.65;100.00
55289;BME280;41154;45.394;5.734;2022-11-18T12:07:56;96271.53;;;9.81;100.00
55289;BME280;41154;45.394;5.734;2022-11-18T12:10:43;96275.09;;;10.07;100.00
55289;BME280;41154;45.394;5.734;2022-11-18T12:18:44;96251.63;;;9.57;100.00
55289;BME280;41154;45.394;5.734;2022-11-18T12:43:03;96230.00;;;11.28;100.00
55289;BME280;41154;45.394;5.734;2022-11-18T12:45:56;96229.50;;;11.15;100.00
55289;BME280;41154;45.394;5.734;2022-11-18T12:48:51;96230.28;;;11.37;100.00
55289;BME280;41154;45.394;5.734;2022-11-18T12:55:10;96234.28;;;11.39;100.00
55289;BME280;41154;45.394;5.734;2022-11-18T12:57:18;96233.22;;;11.35;100.00
55289;BME280;41154;45.394;5.734;2022-11-18T12:59:44;96235.13;;;11.29;100.00
55289;BME280;41154;45.394;5.734;2022-11-18T13:04:39;96227.91;;;9.96;100.00
55289;BME280;41154;45.394;5.734;2022-11-18T13:07:09;96221.72;;;9.90;100.00
55289;BME280;41154;45.394;5.734;2022-11-18T13:09:56;96223.66;;;10.05;100.00
55289;BME280;41154;45.394;5.734;2022-11-18T13:12:25;96219.91;;;10.32;100.00
55289;BME280;41154;45.394;5.734;2022-11-18T13:14:51;96212.16;;;10.56;100.00
55289;BME280;41154;45.394;5.734;2022-11-18T13:17:40;96220.75;;;10.64;100.00
55289;BME280;41154;45.394;5.734;2022-11-18T13:20:27;96211.38;;;10.66;100.00
55289;BME280;41154;45.394;5.734;2022-11-18T13:26:01;96196.34;;;10.60;100.00
55289;BME280;41154;45.394;5.734;2022-11-18T13:31:21;96202.47;;;10.30;100.00
55289;BME280;41154;45.394;5.734;2022-11-18T13:33:51;96208.06;;;9.87;100.00
55289;BME280;41154;45.394;5.734;2022-11-18T13:36:22;96198.97;;;9.88;100.00
55289;BME280;41154;45.394;5.734;2022-11-18T13:38:57;96196.84;;;10.00;100.00
55289;BME280;41154;45.394;5.734;2022-11-18T13:41:24;96196.28;;;9.78;100.00
55289;BME280;41154;45.394;5.734;2022-11-18T13:46:42;96191.19;;;9.81;100.00
55289;BME280;41154;45.394;5.734;2022-11-18T13:49:14;96188.31;;;10.34;100.00
55289;BME280;41154;45.394;5.734;2022-11-18T13:51:41;96190.41;;;10.01;100.00
55289;BME280;41154;45.394;5.734;2022-11-18T13:54:16;96184.75;;;9.82;100.00
55289;BME280;41154;45.394;5.734;2022-11-18T13:56:44;96183.44;;;9.90;100.00
55289;BME280;41154;45.394;5.734;2022-11-18T13:59:17;96180.22;;;9.88;100.00
55289;BME280;41154;45.394;5.734;2022-11-18T14:01:45;96172.72;;;9.90;100.00
55289;BME280;41154;45.394;5.734;2022-11-18T14:04:18;96175.91;;;9.66;100.00
55289;BME280;41154;45.394;5.734;2022-11-18T14:06:45;96168.66;;;9.62;100.00
55289;BME280;41154;45.394;5.734;2022-11-18T14:14:37;96166.81;;;9.73;100.00
55289;BME280;41154;45.394;5.734;2022-11-18T14:17:25;96154.97;;;9.43;100.00
55289;BME280;41154;45.394;5.734;2022-11-18T14:20:06;96146.31;;;9.25;100.00
55289;BME280;41154;45.394;5.734;2022-11-18T14:22:41;96136.13;;;9.22;100.00
55289;BME280;41154;45.394;5.734;2022-11-18T14:30:41;96126.41;;;9.00;100.00
55289;BME280;41154;45.394;5.734;2022-11-18T14:33:18;96105.50;;;8.87;100.00
55289;BME280;41154;45.394;5.734;2022-11-18T14:35:57;96100.66;;;8.79;100.00
55289;BME280;41154;45.394;5.734;2022-11-18T14:41:09;96112.44;;;8.78;100.00
55289;BME280;41154;45.394;5.734;2022-11-18T14:43:36;96108.66;;;8.74;100.00
55289;BME280;41154;45.394;5.734;2022-11-18T14:46:04;96108.91;;;8.67;100.00
55289;BME280;41154;45.394;5.734;2022-11-18T14:48:31;96103.78;;;8.60;100.00
55289;BME280;41154;45.394;5.734;2022-11-18T14:50:57;96098.44;;;8.60;100.00
55289;BME280;41154;45.394;5.734;2022-11-18T14:53:23;96099.50;;;8.59;100.00
55289;BME280;41154;45.394;5.734;2022-11-18T14:55:51;96092.53;;;8.58;100.00
55289;BME280;41154;45.394;5.734;2022-11-18T14:58:18;96090.72;;;8.69;100.00
55289;BME280;41154;45.394;5.734;2022-11-18T15:00:46;96093.94;;;8.71;100.00
55289;BME280;41154;45.394;5.734;2022-11-18T15:03:12;96092.50;;;8.48;100.00
55289;BME280;41154;45.394;5.734;2022-11-18T15:05:38;96103.09;;;8.43;100.00
55289;BME280;41154;45.394;5.734;2022-11-18T15:08:05;96112.19;;;8.42;100.00
55289;BME280;41154;45.394;5.734;2022-11-18T15:10:31;96110.44;;;8.20;100.00
55289;BME280;41154;45.394;5.734;2022-11-18T15:12:57;96119.25;;;8.21;100.00
55289;BME280;41154;45.394;5.734;2022-11-18T15:15:23;96130.94;;;8.09;100.00
55289;BME280;41154;45.394;5.734;2022-11-18T15:17:49;96130.59;;;8.01;100.00